createdAt,value
2018-11-21T00:01:58.203Z,27.83
2018-11-21T00:04:28.595Z,30.37
2018-11-21T00:06:59.645Z,31.37
2018-11-21T00:09:29.266Z,27.73
2018-11-21T00:11:58.677Z,31.73
2018-11-21T00:14:28.098Z,30.00
2018-11-21T00:16:58.535Z,30.13
2018-11-21T00:19:28.281Z,30.87
2018-11-21T00:21:57.687Z,30.20
2018-11-21T00:24:27.484Z,31.63
2018-11-21T00:26:57.158Z,30.30
2018-11-21T00:29:27.012Z,30.97
2018-11-21T00:31:56.494Z,32.93
2018-11-21T00:34:25.903Z,30.33
2018-11-21T00:36:55.646Z,30.27
2018-11-21T00:39:25.062Z,31.57
2018-11-21T00:41:55.765Z,31.77
2018-11-21T00:44:25.191Z,33.83
2018-11-21T00:46:54.965Z,33.30
2018-11-21T00:49:24.687Z,31.37
2018-11-21T00:52:02.660Z,32.10
2018-11-21T00:54:31.983Z,33.10
2018-11-21T00:57:01.418Z,28.90
2018-11-21T00:59:30.845Z,32.90
2018-11-21T01:02:00.245Z,32.67
2018-11-21T01:04:29.906Z,30.63
2018-11-21T01:06:59.333Z,31.60
2018-11-21T01:09:29.088Z,30.83
2018-11-21T01:11:58.501Z,31.20
2018-11-21T01:14:28.240Z,34.00
2018-11-21T01:16:57.711Z,32.33
2018-11-21T01:19:28.104Z,31.93
2018-11-21T01:21:58.222Z,31.80
2018-11-21T01:24:28.054Z,32.57
2018-11-21T01:26:58.746Z,27.80
2018-11-21T01:29:28.183Z,31.80
2018-11-21T01:31:58.017Z,31.13
2018-11-21T01:34:28.055Z,31.17
2018-11-21T01:36:57.504Z,30.07
2018-11-21T01:39:27.282Z,33.73
2018-11-21T01:41:57.108Z,30.27
2018-11-21T01:44:26.556Z,32.77
2018-11-21T01:46:57.780Z,31.60
2018-11-21T01:49:27.112Z,28.70
2018-11-21T01:51:58.336Z,31.93
2018-11-21T01:54:27.768Z,30.90
2018-11-21T01:56:57.446Z,29.13
2018-11-21T01:59:28.106Z,29.10
2018-11-21T02:01:57.491Z,30.33
2018-11-21T02:04:26.869Z,32.93
2018-11-21T02:06:56.438Z,29.80
2018-11-21T02:09:26.123Z,30.40
2018-11-21T02:11:57.455Z,29.80
2018-11-21T02:14:26.860Z,30.20
2018-11-21T02:16:56.363Z,30.13
2018-11-21T02:19:25.773Z,29.70
2018-11-21T02:21:55.502Z,29.27
2018-11-21T02:24:31.937Z,31.90
2018-11-21T02:27:04.878Z,31.27
2018-11-21T02:29:35.814Z,30.97
2018-11-21T02:34:48.556Z,29.60
2018-11-21T02:37:18.359Z,29.43
2018-11-21T02:39:49.066Z,32.13
2018-11-21T02:42:18.528Z,28.77
2018-11-21T02:44:47.900Z,30.60
2018-11-21T02:47:17.621Z,30.83
2018-11-21T02:49:47.017Z,31.93
2018-11-21T02:52:17.257Z,26.67
2018-11-21T02:54:48.626Z,30.23
2018-11-21T02:57:27.991Z,31.00
2018-11-21T03:00:22.366Z,31.80
2018-11-21T03:02:51.844Z,28.10
2018-11-21T03:05:25.624Z,28.23
2018-11-21T03:07:56.420Z,33.00
2018-11-21T03:10:26.416Z,31.13
2018-11-21T03:12:56.276Z,29.10
2018-11-21T03:15:26.046Z,31.63
2018-11-21T03:17:55.531Z,32.73
2018-11-21T03:20:24.910Z,28.47
2018-11-21T03:22:54.528Z,31.00
2018-11-21T03:25:24.690Z,30.90
2018-11-21T03:27:54.514Z,29.53
2018-11-21T03:30:25.755Z,29.60
2018-11-21T03:32:53.384Z,30.33
2018-11-21T03:35:23.844Z,33.17
2018-11-21T03:37:53.694Z,29.80
2018-11-21T03:40:23.418Z,27.17
2018-11-21T03:42:53.704Z,28.93
2018-11-21T03:45:23.504Z,30.73
2018-11-21T03:47:53.613Z,29.50
2018-11-21T03:50:23.066Z,28.80
2018-11-21T03:52:52.868Z,30.40
2018-11-21T03:55:22.295Z,29.43
2018-11-21T03:57:51.824Z,28.67
2018-11-21T04:00:21.521Z,25.87
2018-11-21T04:02:51.020Z,29.13
2018-11-21T04:05:20.876Z,26.87
2018-11-21T04:07:50.282Z,30.47
2018-11-21T04:10:19.697Z,31.07
2018-11-21T04:12:49.464Z,33.13
2018-11-21T04:15:18.865Z,27.97
2018-11-21T04:17:50.353Z,29.13
2018-11-21T04:20:19.771Z,30.60
2018-11-21T04:22:49.439Z,31.77
2018-11-21T04:25:18.898Z,30.43
2018-11-21T04:27:48.334Z,24.50
2018-11-21T04:30:18.154Z,26.77
2018-11-21T04:32:52.359Z,25.47
2018-11-21T04:35:22.376Z,28.37
2018-11-21T04:37:52.638Z,29.20
2018-11-21T04:40:22.387Z,29.67
2018-11-21T04:42:52.156Z,29.53
2018-11-21T04:45:21.544Z,27.83
2018-11-21T04:47:51.860Z,29.07
2018-11-21T04:50:21.263Z,28.17
2018-11-21T04:52:51.010Z,27.57
2018-11-21T04:55:20.877Z,32.53
2018-11-21T04:57:50.283Z,29.33
2018-11-21T05:00:19.696Z,31.33
2018-11-21T05:02:52.112Z,28.30
2018-11-21T05:05:21.486Z,29.47
2018-11-21T05:07:53.897Z,33.77
2018-11-21T05:10:26.024Z,29.23
2018-11-21T05:12:55.736Z,28.37
2018-11-21T05:15:25.486Z,26.83
2018-11-21T05:17:56.661Z,30.30
2018-11-21T05:20:24.281Z,28.93
2018-11-21T05:22:58.463Z,30.53
2018-11-21T05:25:28.281Z,31.53
2018-11-21T05:27:58.404Z,29.77
2018-11-21T05:30:27.976Z,28.93
2018-11-21T05:32:57.862Z,31.60
2018-11-21T05:35:28.965Z,30.17
2018-11-21T05:37:58.711Z,28.73
2018-11-21T05:40:28.146Z,27.13
2018-11-21T05:42:58.727Z,30.57
2018-11-21T05:45:32.709Z,31.83
2018-11-21T05:48:02.707Z,33.83
2018-11-21T05:50:32.104Z,29.33
2018-11-21T05:53:01.498Z,31.73
2018-11-21T05:55:31.256Z,30.93
2018-11-21T05:58:01.046Z,29.77
2018-11-21T06:00:30.469Z,30.60
2018-11-21T06:03:00.231Z,28.97
2018-11-21T06:05:29.649Z,31.50
2018-11-21T06:08:01.921Z,33.77
2018-11-21T06:10:33.826Z,32.47
2018-11-21T06:13:03.259Z,31.67
2018-11-21T06:15:32.676Z,33.10
2018-11-21T06:18:02.535Z,31.90
2018-11-21T06:20:32.427Z,33.57
2018-11-21T06:23:02.990Z,33.67
2018-11-21T06:25:33.244Z,34.27
2018-11-21T06:28:03.022Z,29.27
2018-11-21T06:30:32.738Z,28.27
2018-11-21T06:33:02.432Z,30.73
2018-11-21T06:35:31.818Z,30.77
2018-11-21T06:38:01.243Z,30.90
2018-11-21T06:40:30.710Z,32.60
2018-11-21T06:43:04.849Z,33.07
2018-11-21T06:45:42.539Z,31.83
2018-11-21T06:48:12.004Z,34.30
2018-11-21T06:50:44.372Z,30.37
2018-11-21T06:53:17.694Z,29.00
2018-11-21T06:55:47.529Z,33.43
2018-11-21T06:58:18.148Z,31.40
2018-11-21T07:00:47.647Z,27.43
2018-11-21T07:03:17.141Z,33.30
2018-11-21T07:05:46.874Z,32.37
2018-11-21T07:08:16.306Z,30.53
2018-11-21T07:10:46.021Z,31.77
2018-11-21T07:13:15.418Z,33.50
2018-11-21T07:15:44.916Z,32.90
2018-11-21T07:18:15.633Z,31.97
2018-11-21T07:20:45.445Z,31.13
2018-11-21T07:23:15.703Z,33.20
2018-11-21T07:25:45.128Z,33.23
2018-11-21T07:28:14.928Z,31.47
2018-11-21T07:30:44.341Z,32.53
2018-11-21T07:33:13.742Z,29.93
2018-11-21T07:35:43.292Z,29.97
2018-11-21T07:38:13.187Z,31.93
2018-11-21T07:40:42.994Z,31.13
2018-11-21T07:43:13.550Z,30.10
2018-11-21T07:45:43.707Z,29.57
2018-11-21T07:48:13.066Z,30.67
2018-11-21T07:50:45.848Z,30.07
2018-11-21T07:53:19.668Z,32.20
2018-11-21T07:55:51.008Z,32.03
2018-11-21T07:58:26.629Z,30.97
2018-11-21T08:01:09.750Z,30.97
2018-11-21T08:03:46.120Z,29.97
2018-11-21T08:06:29.397Z,29.87
2018-11-21T08:09:17.153Z,32.80
2018-11-21T08:12:14.800Z,30.37
2018-11-21T08:14:54.966Z,30.97
2018-11-21T08:17:42.134Z,35.07
2018-11-21T08:20:32.256Z,35.43
2018-11-21T08:23:19.684Z,34.83
2018-11-21T08:26:07.595Z,34.40
2018-11-21T08:28:37.073Z,35.53
2018-11-21T08:31:06.497Z,30.63
2018-11-21T08:33:35.903Z,36.83
2018-11-21T08:36:06.599Z,33.10
2018-11-21T08:38:36.032Z,30.10
2018-11-21T08:41:05.705Z,30.50
2018-11-21T08:43:37.521Z,29.47
2018-11-21T08:46:08.998Z,31.47
2018-11-21T08:48:38.820Z,30.63
2018-11-21T08:51:09.213Z,30.40
2018-11-21T08:53:38.619Z,32.13
2018-11-21T08:56:08.102Z,31.47
2018-11-21T08:58:37.902Z,28.43
2018-11-21T09:01:07.387Z,33.97
2018-11-21T09:03:37.513Z,30.07
2018-11-21T09:06:07.334Z,31.83
2018-11-21T09:08:36.747Z,30.10
2018-11-21T09:11:07.817Z,28.27
2018-11-21T09:13:40.483Z,30.80
2018-11-21T09:16:09.939Z,32.50
2018-11-21T09:18:39.321Z,28.83
2018-11-21T09:21:09.883Z,29.70
2018-11-21T09:23:41.970Z,31.17
2018-11-21T09:26:11.860Z,31.07
2018-11-21T09:28:41.634Z,28.80
2018-11-21T09:31:11.555Z,30.90
2018-11-21T09:33:40.936Z,29.20
2018-11-21T09:36:10.369Z,28.10
2018-11-21T09:38:40.140Z,26.67
2018-11-21T09:41:09.627Z,31.10
2018-11-21T09:43:39.943Z,29.37
2018-11-21T09:46:09.869Z,26.20
2018-11-21T09:48:40.156Z,28.70
2018-11-21T09:51:09.995Z,31.73
2018-11-21T09:53:43.634Z,28.57
2018-11-21T09:56:13.681Z,26.23
2018-11-21T09:58:43.958Z,29.47
2018-11-21T10:02:08.368Z,29.83
2018-11-21T10:04:41.227Z,27.53
2018-11-21T10:07:10.632Z,27.47
2018-11-21T10:09:43.018Z,30.73
2018-11-21T10:12:17.550Z,28.40
2018-11-21T10:14:47.349Z,28.90
2018-11-21T10:17:16.734Z,29.60
2018-11-21T10:19:50.272Z,26.20
2018-11-21T10:22:20.378Z,27.17
2018-11-21T10:24:50.214Z,27.23
2018-11-21T10:29:58.975Z,27.33
2018-11-21T10:32:28.468Z,28.97
2018-11-21T10:35:02.813Z,28.23
2018-11-21T10:37:32.289Z,26.40
2018-11-21T10:40:04.107Z,27.63
2018-11-21T10:42:38.562Z,23.83
2018-11-21T10:45:09.930Z,23.03
2018-11-21T10:47:39.350Z,23.30
2018-11-21T10:50:09.806Z,27.47
2018-11-21T10:52:39.172Z,24.00
2018-11-21T10:55:08.578Z,23.23
2018-11-21T10:57:38.370Z,24.13
2018-11-21T11:00:38.156Z,23.27
2018-11-21T11:03:12.341Z,23.63
2018-11-21T11:06:06.669Z,23.07
2018-11-21T11:09:04.031Z,22.10
2018-11-21T11:12:04.874Z,22.23
2018-11-21T11:14:57.305Z,22.37
2018-11-21T11:17:46.883Z,22.43
2018-11-21T11:20:34.765Z,22.43
2018-11-21T11:23:23.535Z,22.73
2018-11-21T11:26:20.301Z,23.47
2018-11-21T11:29:22.492Z,22.03
2018-11-21T11:32:13.557Z,22.00
2018-11-21T11:35:01.015Z,22.50
2018-11-21T11:37:48.262Z,21.73
2018-11-21T11:40:36.541Z,22.17
2018-11-21T11:43:24.281Z,19.43
2018-11-21T11:46:18.824Z,24.93
2018-11-21T11:49:19.290Z,21.97
2018-11-21T11:52:03.228Z,20.50
2018-11-21T11:54:58.737Z,21.63
2018-11-21T11:57:51.785Z,22.70
2018-11-21T12:00:39.145Z,22.87
2018-11-21T12:03:40.782Z,22.97
2018-11-21T12:06:30.235Z,22.57
2018-11-21T12:09:18.547Z,24.83
2018-11-21T12:12:09.479Z,23.73
2018-11-21T12:14:58.319Z,22.40
2018-11-21T12:17:49.811Z,24.67
2018-11-21T12:20:51.677Z,23.97
2018-11-21T12:23:43.094Z,24.57
2018-11-21T12:26:33.142Z,23.37
2018-11-21T12:29:20.266Z,20.37
2018-11-21T12:32:09.656Z,26.43
2018-11-21T12:34:57.698Z,21.13
2018-11-21T12:38:01.361Z,20.37
2018-11-21T12:40:42.029Z,22.57
2018-11-21T12:43:36.894Z,22.90
2018-11-21T12:46:25.544Z,24.60
2018-11-21T12:49:19.078Z,23.20
2018-11-21T12:52:00.293Z,21.17
2018-11-21T12:54:57.837Z,20.73
2018-11-21T12:57:49.624Z,21.27
2018-11-21T13:00:26.335Z,20.60
2018-11-21T13:03:01.180Z,24.67
2018-11-21T13:05:49.753Z,21.37
2018-11-21T13:08:39.088Z,22.73
2018-11-21T13:11:39.514Z,23.83
2018-11-21T13:14:26.747Z,21.00
2018-11-21T13:17:16.569Z,22.93
2018-11-21T13:20:16.754Z,19.90
2018-11-21T13:23:10.644Z,22.77
2018-11-21T13:25:51.298Z,21.27
2018-11-21T13:28:38.586Z,23.73
2018-11-21T13:31:32.865Z,22.47
2018-11-21T13:34:24.317Z,19.60
2018-11-21T13:37:19.646Z,21.60
2018-11-21T13:40:19.971Z,20.47
2018-11-21T13:43:07.429Z,20.87
2018-11-21T13:46:00.777Z,20.80
2018-11-21T13:48:58.117Z,19.17
2018-11-21T13:51:48.714Z,22.27
2018-11-21T13:54:29.064Z,21.50
2018-11-21T13:56:59.214Z,19.73
2018-11-21T13:59:28.721Z,18.97
2018-11-21T14:01:59.129Z,17.77
2018-11-21T14:04:28.570Z,20.70
2018-11-21T14:06:59.671Z,22.20
2018-11-21T14:09:30.366Z,21.03
2018-11-21T14:12:04.199Z,20.23
2018-11-21T14:14:33.839Z,20.87
2018-11-21T14:17:03.696Z,18.37
2018-11-21T14:19:33.220Z,18.43
2018-11-21T14:22:02.844Z,18.80
2018-11-21T14:24:32.706Z,22.33
2018-11-21T14:27:02.195Z,19.67
2018-11-21T14:29:31.687Z,19.77
2018-11-21T14:32:01.146Z,19.43
2018-11-21T14:34:30.964Z,17.87
2018-11-21T14:37:02.477Z,18.23
2018-11-21T14:39:32.194Z,17.20
2018-11-21T14:42:08.433Z,20.23
2018-11-21T14:44:38.422Z,19.47
2018-11-21T14:47:11.793Z,19.53
2018-11-21T14:49:42.589Z,21.53
2018-11-21T14:52:12.043Z,19.57
2018-11-21T14:54:41.507Z,19.07
2018-11-21T14:57:10.923Z,21.00
2018-11-21T14:59:40.402Z,21.23
2018-11-21T15:02:10.933Z,21.33
2018-11-21T15:04:41.010Z,17.23
2018-11-21T15:07:10.553Z,19.63
2018-11-21T15:09:42.174Z,20.10
2018-11-21T15:12:15.715Z,19.90
2018-11-21T15:14:49.120Z,20.00
2018-11-21T15:17:19.718Z,18.47
2018-11-21T15:19:52.355Z,21.20
2018-11-21T15:22:26.534Z,21.90
2018-11-21T15:24:58.793Z,21.70
2018-11-21T15:27:33.263Z,20.17
2018-11-21T15:30:10.922Z,19.37
2018-11-21T15:32:40.275Z,20.70
2018-11-21T15:35:13.819Z,20.33
2018-11-21T15:37:44.894Z,19.80
2018-11-21T15:40:19.760Z,19.53
2018-11-21T15:42:52.668Z,18.87
2018-11-21T15:45:27.616Z,20.17
2018-11-21T15:47:59.692Z,18.13
2018-11-21T15:50:29.796Z,18.53
2018-11-21T15:52:59.250Z,16.97
2018-11-21T15:55:31.141Z,18.53
2018-11-21T15:58:01.001Z,20.47
2018-11-21T16:00:33.444Z,19.83
2018-11-21T16:03:05.138Z,22.17
2018-11-21T16:05:34.734Z,16.37
2018-11-21T16:08:04.295Z,19.53
2018-11-21T16:10:44.662Z,20.20
2018-11-21T16:13:14.076Z,20.93
2018-11-21T16:15:49.155Z,19.80
2018-11-21T16:18:20.065Z,20.10
2018-11-21T16:20:49.528Z,18.70
2018-11-21T16:23:21.995Z,19.03
2018-11-21T16:25:51.426Z,19.77
2018-11-21T16:28:24.558Z,18.77
2018-11-21T16:30:57.705Z,19.97
2018-11-21T16:33:27.177Z,18.57
2018-11-21T16:35:56.617Z,23.50
2018-11-21T16:38:30.548Z,24.20
2018-11-21T16:41:01.205Z,18.27
2018-11-21T16:43:32.939Z,19.10
2018-11-21T16:46:02.334Z,20.77
2018-11-21T16:48:32.694Z,20.53
2018-11-21T16:51:05.063Z,20.10
2018-11-21T16:53:35.138Z,22.37
2018-11-21T16:56:04.419Z,21.70
2018-11-21T16:58:34.240Z,18.97
2018-11-21T17:01:04.013Z,23.43
2018-11-21T17:03:36.903Z,20.33
2018-11-21T17:06:07.996Z,20.00
2018-11-21T17:08:37.615Z,20.23
2018-11-21T17:11:07.134Z,19.73
2018-11-21T17:13:38.015Z,19.70
2018-11-21T17:16:07.556Z,19.53
2018-11-21T17:18:38.923Z,18.90
2018-11-21T17:21:08.480Z,18.63
2018-11-21T17:23:37.961Z,21.17
2018-11-21T17:26:12.138Z,19.53
2018-11-21T17:28:42.007Z,19.13
2018-11-21T17:31:11.526Z,16.93
2018-11-21T17:33:40.962Z,19.30
2018-11-21T17:36:10.756Z,20.30
2018-11-21T17:38:40.206Z,19.03
2018-11-21T17:41:10.918Z,19.73
2018-11-21T17:43:40.356Z,21.67
2018-11-21T17:46:10.441Z,17.77
2018-11-21T17:48:39.966Z,18.63
2018-11-21T17:51:09.438Z,17.67
2018-11-21T17:53:38.880Z,18.33
2018-11-21T17:56:10.314Z,18.53
2018-11-21T17:58:39.836Z,19.60
2018-11-21T18:01:09.427Z,19.53
2018-11-21T18:03:38.864Z,19.40
2018-11-21T18:06:10.539Z,19.33
2018-11-21T18:08:47.445Z,18.80
2018-11-21T18:11:18.902Z,18.97
2018-11-21T18:13:51.467Z,20.13
2018-11-21T18:16:20.856Z,19.63
2018-11-21T18:18:50.315Z,17.87
2018-11-21T18:21:20.157Z,19.87
2018-11-21T18:23:51.606Z,19.47
2018-11-21T18:26:21.324Z,21.53
2018-11-21T18:28:50.758Z,21.67
2018-11-21T18:31:20.232Z,22.07
2018-11-21T18:33:50.063Z,18.43
2018-11-21T18:36:21.181Z,18.77
2018-11-21T18:38:50.589Z,19.90
2018-11-21T18:41:20.224Z,20.00
2018-11-21T18:43:51.115Z,18.50
2018-11-21T18:46:23.454Z,20.47
2018-11-21T18:48:52.961Z,20.10
2018-11-21T18:51:24.823Z,17.17
2018-11-21T18:53:57.807Z,18.10
2018-11-21T18:56:45.512Z,19.33
2018-11-21T18:59:19.613Z,19.43
2018-11-21T19:01:49.931Z,17.37
2018-11-21T19:04:20.141Z,23.30
2018-11-21T19:06:50.054Z,25.10
2018-11-21T19:09:19.956Z,22.83
2018-11-21T19:11:49.810Z,23.17
2018-11-21T19:14:19.639Z,28.87
2018-11-21T19:16:50.286Z,27.40
2018-11-21T19:19:19.613Z,27.90
2018-11-21T19:21:54.522Z,29.67
2018-11-21T19:24:24.301Z,29.73
2018-11-21T19:26:58.673Z,28.57
2018-11-21T19:29:28.963Z,31.57
2018-11-21T19:31:58.818Z,33.30
2018-11-21T19:34:31.122Z,33.17
2018-11-21T19:37:00.983Z,33.13
2018-11-21T19:39:35.466Z,36.73
2018-11-21T19:42:07.111Z,34.97
2018-11-21T19:44:40.504Z,38.83
2018-11-21T19:47:14.128Z,35.37
2018-11-21T19:49:45.339Z,38.23
2018-11-21T19:52:17.830Z,36.33
2018-11-21T19:54:50.645Z,38.40
2018-11-21T19:57:41.090Z,36.40
2018-11-21T20:00:17.708Z,37.03
2018-11-21T20:02:48.451Z,38.93
2018-11-21T20:05:21.690Z,38.63
2018-11-21T20:07:51.740Z,35.53
2018-11-21T20:10:24.479Z,39.93
2018-11-21T20:12:54.556Z,40.67
2018-11-21T20:15:33.408Z,39.40
2018-11-21T20:18:04.055Z,42.53
2018-11-21T20:20:34.041Z,41.83
2018-11-21T20:23:06.551Z,44.13
2018-11-21T20:25:37.674Z,40.00
2018-11-21T20:28:08.296Z,43.10
2018-11-21T20:30:43.255Z,42.10
2018-11-21T20:33:15.957Z,42.67
2018-11-21T20:35:47.485Z,42.00
2018-11-21T20:38:20.359Z,41.30
2018-11-21T20:40:53.943Z,40.73
2018-11-21T20:43:24.943Z,41.80
2018-11-21T20:45:57.172Z,41.63
2018-11-21T20:48:28.484Z,41.83
2018-11-21T20:51:05.977Z,40.03
2018-11-21T20:53:35.491Z,41.80
2018-11-21T20:56:06.924Z,39.83
2018-11-21T20:58:38.630Z,40.43
2018-11-21T21:01:18.222Z,42.97
2018-11-21T21:03:54.306Z,40.10
2018-11-21T21:06:28.154Z,40.17
2018-11-21T21:08:57.680Z,40.27
2018-11-21T21:11:27.519Z,40.13
2018-11-21T21:13:56.965Z,40.40
2018-11-21T21:16:27.750Z,38.47
2018-11-21T21:18:57.563Z,40.60
2018-11-21T21:21:27.390Z,40.73
2018-11-21T21:24:08.159Z,39.77
2018-11-21T21:26:39.053Z,45.27
2018-11-21T21:29:08.522Z,44.47
2018-11-21T21:31:39.396Z,42.17
2018-11-21T21:34:08.927Z,42.43
2018-11-21T21:36:38.436Z,42.60
2018-11-21T21:39:12.140Z,43.40
2018-11-21T21:41:41.971Z,40.47
2018-11-21T21:44:13.740Z,42.40
2018-11-21T21:46:44.682Z,41.97
2018-11-21T21:49:14.328Z,41.67
2018-11-21T21:54:26.903Z,43.57
2018-11-21T21:56:56.352Z,43.53
2018-11-21T21:59:25.920Z,41.87
2018-11-21T22:01:55.381Z,43.77
2018-11-21T22:04:24.827Z,40.93
2018-11-21T22:06:54.380Z,40.07
2018-11-21T22:09:24.194Z,42.77
2018-11-21T22:11:53.642Z,39.97
2018-11-21T22:14:28.102Z,43.77
2018-11-21T22:16:57.529Z,40.70
2018-11-21T22:19:27.277Z,42.67
2018-11-21T22:21:56.771Z,40.07
2018-11-21T22:24:26.605Z,43.80
2018-11-21T22:26:56.260Z,39.73
2018-11-21T22:29:25.717Z,42.77
2018-11-21T22:31:55.129Z,42.70
2018-11-21T22:34:24.717Z,39.50
2018-11-21T22:36:54.153Z,40.10
2018-11-21T22:39:23.684Z,40.80
2018-11-21T22:41:53.328Z,46.27
2018-11-21T22:44:22.793Z,39.17
2018-11-21T22:46:57.965Z,41.13
2018-11-21T22:49:39.497Z,40.23
2018-11-21T22:52:09.001Z,41.47
2018-11-21T22:54:38.458Z,40.40
2018-11-21T22:57:07.865Z,40.50
2018-11-21T22:59:37.330Z,40.77
2018-11-21T23:02:06.835Z,40.90
2018-11-21T23:04:36.243Z,39.23
2018-11-21T23:07:05.777Z,37.63
2018-11-21T23:09:35.250Z,40.27
2018-11-21T23:12:04.707Z,39.03
2018-11-21T23:14:34.506Z,39.17
2018-11-21T23:17:03.902Z,39.37
2018-11-21T23:19:33.428Z,41.20
2018-11-21T23:22:02.813Z,41.43
2018-11-21T23:24:32.350Z,37.33
2018-11-21T23:27:01.782Z,38.20
2018-11-21T23:29:31.314Z,40.00
2018-11-21T23:32:00.735Z,40.33
2018-11-21T23:34:30.259Z,37.50
2018-11-21T23:36:59.682Z,40.63
2018-11-21T23:39:29.134Z,41.80
2018-11-21T23:41:59.669Z,38.37
2018-11-21T23:44:29.114Z,37.53
2018-11-21T23:46:58.668Z,40.17
2018-11-21T23:49:28.109Z,41.87
2018-11-21T23:51:57.617Z,40.97
2018-11-21T23:54:33.382Z,39.03
2018-11-21T23:57:15.965Z,37.73
2018-11-21T23:59:32.263Z,38.00
